sensor_id;sensor_type;location;lat;lon;timestamp;temperature;humidity
7502;DHT22;3792;47.740;7.606;2023-10-09T00:01:42;14.30;99.90
7502;DHT22;3792;47.740;7.606;2023-10-09T00:04:12;14.30;99.90
7502;DHT22;3792;47.740;7.606;2023-10-09T00:06:42;14.30;99.90
7502;DHT22;3792;47.740;7.606;2023-10-09T00:09:10;14.30;99.90
7502;DHT22;3792;47.740;7.606;2023-10-09T00:11:44;14.30;99.90
7502;DHT22;3792;47.740;7.606;2023-10-09T00:14:13;14.40;99.90
7502;DHT22;3792;47.740;7.606;2023-10-09T00:16:44;14.40;99.90
7502;DHT22;3792;47.740;7.606;2023-10-09T00:19:17;14.40;99.90
7502;DHT22;3792;47.740;7.606;2023-10-09T00:21:47;14.40;99.90
7502;DHT22;3792;47.740;7.606;2023-10-09T00:24:15;14.40;99.90
7502;DHT22;3792;47.740;7.606;2023-10-09T00:26:49;14.40;99.90
7502;DHT22;3792;47.740;7.606;2023-10-09T00:29:18;14.50;99.90
7502;DHT22;3792;47.740;7.606;2023-10-09T00:31:49;14.50;99.90
7502;DHT22;3792;47.740;7.606;2023-10-09T00:34:21;14.50;99.90
7502;DHT22;3792;47.740;7.606;2023-10-09T00:36:49;14.50;99.90
7502;DHT22;3792;47.740;7.606;2023-10-09T00:39:17;14.50;99.90
7502;DHT22;3792;47.740;7.606;2023-10-09T00:42:07;14.40;99.90
7502;DHT22;3792;47.740;7.606;2023-10-09T00:44:37;14.40;99.90
7502;DHT22;3792;47.740;7.606;2023-10-09T00:47:06;14.30;99.90
7502;DHT22;3792;47.740;7.606;2023-10-09T00:49:51;14.20;99.90
7502;DHT22;3792;47.740;7.606;2023-10-09T00:52:27;14.10;99.90
7502;DHT22;3792;47.740;7.606;2023-10-09T00:55:05;14.10;99.90
7502;DHT22;3792;47.740;7.606;2023-10-09T00:57:40;14.00;99.90
7502;DHT22;3792;47.740;7.606;2023-10-09T01:00:08;14.00;99.90
7502;DHT22;3792;47.740;7.606;2023-10-09T01:02:57;13.80;99.90
7502;DHT22;3792;47.740;7.606;2023-10-09T01:05:37;13.70;99.90
7502;DHT22;3792;47.740;7.606;2023-10-09T01:08:12;13.60;99.90
7502;DHT22;3792;47.740;7.606;2023-10-09T01:10:50;13.60;99.90
7502;DHT22;3792;47.740;7.606;2023-10-09T01:13:23;13.60;99.90
7502;DHT22;3792;47.740;7.606;2023-10-09T01:16:05;13.60;99.90
7502;DHT22;3792;47.740;7.606;2023-10-09T01:18:33;13.70;99.90
7502;DHT22;3792;47.740;7.606;2023-10-09T01:21:06;13.70;99.90
7502;DHT22;3792;47.740;7.606;2023-10-09T01:23:35;13.70;99.90
7502;DHT22;3792;47.740;7.606;2023-10-09T01:26:24;13.80;99.90
7502;DHT22;3792;47.740;7.606;2023-10-09T01:28:51;13.80;99.90
7502;DHT22;3792;47.740;7.606;2023-10-09T01:31:23;13.70;99.90
7502;DHT22;3792;47.740;7.606;2023-10-09T01:33:52;13.70;99.90
7502;DHT22;3792;47.740;7.606;2023-10-09T01:36:23;13.70;99.90
7502;DHT22;3792;47.740;7.606;2023-10-09T01:38:59;13.70;99.90
7502;DHT22;3792;47.740;7.606;2023-10-09T01:41:27;13.70;99.90
7502;DHT22;3792;47.740;7.606;2023-10-09T01:44:00;13.70;99.90
7502;DHT22;3792;47.740;7.606;2023-10-09T01:46:36;13.60;99.90
7502;DHT22;3792;47.740;7.606;2023-10-09T01:49:03;13.60;99.90
7502;DHT22;3792;47.740;7.606;2023-10-09T01:51:39;13.60;99.90
7502;DHT22;3792;47.740;7.606;2023-10-09T01:54:09;13.50;99.90
7502;DHT22;3792;47.740;7.606;2023-10-09T01:56:42;13.50;99.90
7502;DHT22;3792;47.740;7.606;2023-10-09T01:59:12;13.40;99.90
7502;DHT22;3792;47.740;7.606;2023-10-09T02:01:41;13.50;99.90
7502;DHT22;3792;47.740;7.606;2023-10-09T02:04:14;13.50;99.90
7502;DHT22;3792;47.740;7.606;2023-10-09T02:06:46;13.50;99.90
7502;DHT22;3792;47.740;7.606;2023-10-09T02:09:19;13.60;99.90
7502;DHT22;3792;47.740;7.606;2023-10-09T02:11:52;13.60;99.90
7502;DHT22;3792;47.740;7.606;2023-10-09T02:14:20;13.70;99.90
7502;DHT22;3792;47.740;7.606;2023-10-09T02:16:50;13.80;99.90
7502;DHT22;3792;47.740;7.606;2023-10-09T02:19:30;13.90;99.90
7502;DHT22;3792;47.740;7.606;2023-10-09T02:22:00;13.90;99.90
7502;DHT22;3792;47.740;7.606;2023-10-09T02:24:42;14.00;99.90
7502;DHT22;3792;47.740;7.606;2023-10-09T02:27:15;14.00;99.90
7502;DHT22;3792;47.740;7.606;2023-10-09T02:30:07;14.00;99.90
7502;DHT22;3792;47.740;7.606;2023-10-09T02:32:45;13.90;99.90
7502;DHT22;3792;47.740;7.606;2023-10-09T02:35:15;13.80;99.90
7502;DHT22;3792;47.740;7.606;2023-10-09T02:37:57;13.90;99.90
7502;DHT22;3792;47.740;7.606;2023-10-09T02:40:28;13.90;99.90
7502;DHT22;3792;47.740;7.606;2023-10-09T02:43:06;13.80;99.90
7502;DHT22;3792;47.740;7.606;2023-10-09T02:45:37;13.80;99.90
7502;DHT22;3792;47.740;7.606;2023-10-09T02:48:16;13.80;99.90
7502;DHT22;3792;47.740;7.606;2023-10-09T02:50:45;13.80;99.90
7502;DHT22;3792;47.740;7.606;2023-10-09T02:53:14;13.70;99.90
7502;DHT22;3792;47.740;7.606;2023-10-09T02:55:46;13.70;99.90
7502;DHT22;3792;47.740;7.606;2023-10-09T02:58:37;13.60;99.90
7502;DHT22;3792;47.740;7.606;2023-10-09T03:01:10;13.60;99.90
7502;DHT22;3792;47.740;7.606;2023-10-09T03:03:39;13.70;99.90
7502;DHT22;3792;47.740;7.606;2023-10-09T03:06:07;13.60;99.90
7502;DHT22;3792;47.740;7.606;2023-10-09T03:08:37;13.60;99.90
7502;DHT22;3792;47.740;7.606;2023-10-09T03:11:07;13.50;99.90
7502;DHT22;3792;47.740;7.606;2023-10-09T03:13:40;13.50;99.90
7502;DHT22;3792;47.740;7.606;2023-10-09T03:16:08;13.50;99.90
7502;DHT22;3792;47.740;7.606;2023-10-09T03:18:40;13.50;99.90
7502;DHT22;3792;47.740;7.606;2023-10-09T03:21:09;13.50;99.90
7502;DHT22;3792;47.740;7.606;2023-10-09T03:23:36;13.50;99.90
7502;DHT22;3792;47.740;7.606;2023-10-09T03:26:05;13.50;99.90
7502;DHT22;3792;47.740;7.606;2023-10-09T03:28:33;13.50;99.90
7502;DHT22;3792;47.740;7.606;2023-10-09T03:31:01;13.50;99.90
7502;DHT22;3792;47.740;7.606;2023-10-09T03:33:31;13.50;99.90
7502;DHT22;3792;47.740;7.606;2023-10-09T03:35:59;13.40;99.90
7502;DHT22;3792;47.740;7.606;2023-10-09T03:38:26;13.40;99.90
7502;DHT22;3792;47.740;7.606;2023-10-09T03:40:55;13.40;99.90
7502;DHT22;3792;47.740;7.606;2023-10-09T03:43:23;13.20;99.90
7502;DHT22;3792;47.740;7.606;2023-10-09T03:45:50;13.20;99.90
7502;DHT22;3792;47.740;7.606;2023-10-09T03:48:19;13.20;99.90
7502;DHT22;3792;47.740;7.606;2023-10-09T03:50:52;13.10;99.90
7502;DHT22;3792;47.740;7.606;2023-10-09T03:53:34;13.10;99.90
7502;DHT22;3792;47.740;7.606;2023-10-09T03:56:03;13.10;99.90
7502;DHT22;3792;47.740;7.606;2023-10-09T03:58:39;13.10;99.90
7502;DHT22;3792;47.740;7.606;2023-10-09T04:01:10;13.10;99.90
7502;DHT22;3792;47.740;7.606;2023-10-09T04:03:43;13.10;99.90
7502;DHT22;3792;47.740;7.606;2023-10-09T04:06:11;12.90;99.90
7502;DHT22;3792;47.740;7.606;2023-10-09T04:08:38;12.70;99.90
7502;DHT22;3792;47.740;7.606;2023-10-09T04:11:14;12.80;99.90
7502;DHT22;3792;47.740;7.606;2023-10-09T04:13:44;12.80;99.90
7502;DHT22;3792;47.740;7.606;2023-10-09T04:16:12;12.80;99.90
7502;DHT22;3792;47.740;7.606;2023-10-09T04:18:53;12.80;99.90
7502;DHT22;3792;47.740;7.606;2023-10-09T04:21:23;12.70;99.90
7502;DHT22;3792;47.740;7.606;2023-10-09T04:24:00;12.80;99.90
7502;DHT22;3792;47.740;7.606;2023-10-09T04:26:48;12.80;99.90
7502;DHT22;3792;47.740;7.606;2023-10-09T04:29:23;12.90;99.90
7502;DHT22;3792;47.740;7.606;2023-10-09T04:31:53;13.00;99.90
7502;DHT22;3792;47.740;7.606;2023-10-09T04:34:22;13.10;99.90
7502;DHT22;3792;47.740;7.606;2023-10-09T04:36:49;13.20;99.90
7502;DHT22;3792;47.740;7.606;2023-10-09T04:39:17;13.30;99.90
7502;DHT22;3792;47.740;7.606;2023-10-09T04:41:58;13.30;99.90
7502;DHT22;3792;47.740;7.606;2023-10-09T04:44:41;13.20;99.90
7502;DHT22;3792;47.740;7.606;2023-10-09T04:47:25;13.20;99.90
7502;DHT22;3792;47.740;7.606;2023-10-09T04:50:01;13.10;99.90
7502;DHT22;3792;47.740;7.606;2023-10-09T04:52:32;13.00;99.90
7502;DHT22;3792;47.740;7.606;2023-10-09T04:55:16;13.00;99.90
7502;DHT22;3792;47.740;7.606;2023-10-09T04:57:47;13.00;99.90
7502;DHT22;3792;47.740;7.606;2023-10-09T05:00:28;13.10;99.90
7502;DHT22;3792;47.740;7.606;2023-10-09T05:03:12;13.10;99.90
7502;DHT22;3792;47.740;7.606;2023-10-09T05:05:52;13.10;99.90
7502;DHT22;3792;47.740;7.606;2023-10-09T05:08:26;13.10;99.90
7502;DHT22;3792;47.740;7.606;2023-10-09T05:10:58;13.10;99.90
7502;DHT22;3792;47.740;7.606;2023-10-09T05:13:41;13.20;99.90
7502;DHT22;3792;47.740;7.606;2023-10-09T05:16:13;13.30;99.90
7502;DHT22;3792;47.740;7.606;2023-10-09T05:18:44;13.30;99.90
7502;DHT22;3792;47.740;7.606;2023-10-09T05:21:12;13.40;99.90
7502;DHT22;3792;47.740;7.606;2023-10-09T05:24:04;13.40;99.90
7502;DHT22;3792;47.740;7.606;2023-10-09T05:26:43;13.30;99.90
7502;DHT22;3792;47.740;7.606;2023-10-09T05:29:18;13.30;99.90
7502;DHT22;3792;47.740;7.606;2023-10-09T05:32:12;12.90;99.90
7502;DHT22;3792;47.740;7.606;2023-10-09T05:34:53;12.80;99.90
7502;DHT22;3792;47.740;7.606;2023-10-09T05:37:41;12.70;99.90
7502;DHT22;3792;47.740;7.606;2023-10-09T05:40:12;12.70;99.90
7502;DHT22;3792;47.740;7.606;2023-10-09T05:42:56;12.80;99.90
7502;DHT22;3792;47.740;7.606;2023-10-09T05:45:28;12.90;99.90
7502;DHT22;3792;47.740;7.606;2023-10-09T05:48:14;12.90;99.90
7502;DHT22;3792;47.740;7.606;2023-10-09T05:50:57;12.90;99.90
7502;DHT22;3792;47.740;7.606;2023-10-09T05:53:44;13.00;99.90
7502;DHT22;3792;47.740;7.606;2023-10-09T05:56:37;13.00;99.90
7502;DHT22;3792;47.740;7.606;2023-10-09T05:59:21;13.10;99.90
7502;DHT22;3792;47.740;7.606;2023-10-09T06:02:06;13.00;99.90
7502;DHT22;3792;47.740;7.606;2023-10-09T06:05:00;13.10;99.90
7502;DHT22;3792;47.740;7.606;2023-10-09T06:07:47;13.10;99.90
7502;DHT22;3792;47.740;7.606;2023-10-09T06:10:30;13.20;99.90
7502;DHT22;3792;47.740;7.606;2023-10-09T06:13:04;13.20;99.90
7502;DHT22;3792;47.740;7.606;2023-10-09T06:15:37;13.30;99.90
7502;DHT22;3792;47.740;7.606;2023-10-09T06:18:35;13.30;99.90
7502;DHT22;3792;47.740;7.606;2023-10-09T06:21:08;13.50;99.90
7502;DHT22;3792;47.740;7.606;2023-10-09T06:23:55;13.50;99.90
7502;DHT22;3792;47.740;7.606;2023-10-09T06:26:41;13.70;99.90
7502;DHT22;3792;47.740;7.606;2023-10-09T06:29:17;13.90;99.90
7502;DHT22;3792;47.740;7.606;2023-10-09T06:32:00;14.00;99.90
7502;DHT22;3792;47.740;7.606;2023-10-09T06:34:43;14.10;99.90
7502;DHT22;3792;47.740;7.606;2023-10-09T06:37:13;14.30;99.90
7502;DHT22;3792;47.740;7.606;2023-10-09T06:40:00;14.50;99.90
7502;DHT22;3792;47.740;7.606;2023-10-09T06:42:58;14.80;99.90
7502;DHT22;3792;47.740;7.606;2023-10-09T06:45:24;15.10;99.90
7502;DHT22;3792;47.740;7.606;2023-10-09T06:48:09;15.20;99.90
7502;DHT22;3792;47.740;7.606;2023-10-09T06:50:57;15.30;99.90
7502;DHT22;3792;47.740;7.606;2023-10-09T06:53:31;15.30;99.90
7502;DHT22;3792;47.740;7.606;2023-10-09T06:56:15;15.40;99.90
7502;DHT22;3792;47.740;7.606;2023-10-09T06:58:50;15.60;99.90
7502;DHT22;3792;47.740;7.606;2023-10-09T07:01:20;15.90;99.90
7502;DHT22;3792;47.740;7.606;2023-10-09T07:03:54;16.00;99.90
7502;DHT22;3792;47.740;7.606;2023-10-09T07:06:36;16.20;99.90
7502;DHT22;3792;47.740;7.606;2023-10-09T07:09:18;16.40;99.90
7502;DHT22;3792;47.740;7.606;2023-10-09T07:11:48;16.60;99.90
7502;DHT22;3792;47.740;7.606;2023-10-09T07:14:25;16.80;99.90
7502;DHT22;3792;47.740;7.606;2023-10-09T07:17:10;16.90;99.90
7502;DHT22;3792;47.740;7.606;2023-10-09T07:19:48;17.10;99.90
7502;DHT22;3792;47.740;7.606;2023-10-09T07:22:35;17.30;99.90
7502;DHT22;3792;47.740;7.606;2023-10-09T07:25:20;17.40;99.90
7502;DHT22;3792;47.740;7.606;2023-10-09T07:28:04;17.60;99.90
7502;DHT22;3792;47.740;7.606;2023-10-09T07:30:44;17.70;99.90
7502;DHT22;3792;47.740;7.606;2023-10-09T07:33:11;17.90;99.90
7502;DHT22;3792;47.740;7.606;2023-10-09T07:35:44;18.00;99.90
7502;DHT22;3792;47.740;7.606;2023-10-09T07:38:16;18.20;99.90
7502;DHT22;3792;47.740;7.606;2023-10-09T07:40:47;18.40;99.90
7502;DHT22;3792;47.740;7.606;2023-10-09T07:43:22;18.50;99.90
7502;DHT22;3792;47.740;7.606;2023-10-09T07:45:53;18.70;99.90
7502;DHT22;3792;47.740;7.606;2023-10-09T07:48:37;18.80;99.90
7502;DHT22;3792;47.740;7.606;2023-10-09T07:51:14;19.00;99.90
7502;DHT22;3792;47.740;7.606;2023-10-09T07:53:42;19.20;99.90
7502;DHT22;3792;47.740;7.606;2023-10-09T07:56:17;19.30;99.90
7502;DHT22;3792;47.740;7.606;2023-10-09T07:58:46;19.60;99.90
7502;DHT22;3792;47.740;7.606;2023-10-09T08:01:15;19.70;99.90
7502;DHT22;3792;47.740;7.606;2023-10-09T08:03:49;19.90;99.90
7502;DHT22;3792;47.740;7.606;2023-10-09T08:06:27;20.10;99.90
7502;DHT22;3792;47.740;7.606;2023-10-09T08:09:09;20.20;99.90
7502;DHT22;3792;47.740;7.606;2023-10-09T08:12:06;20.40;99.90
7502;DHT22;3792;47.740;7.606;2023-10-09T08:14:56;20.60;99.90
7502;DHT22;3792;47.740;7.606;2023-10-09T08:17:38;20.80;99.90
7502;DHT22;3792;47.740;7.606;2023-10-09T08:20:06;21.00;99.90
7502;DHT22;3792;47.740;7.606;2023-10-09T08:22:37;21.10;99.90
7502;DHT22;3792;47.740;7.606;2023-10-09T08:25:18;21.30;99.90
7502;DHT22;3792;47.740;7.606;2023-10-09T08:27:56;21.40;99.90
7502;DHT22;3792;47.740;7.606;2023-10-09T08:30:26;21.60;99.90
7502;DHT22;3792;47.740;7.606;2023-10-09T08:32:54;21.70;99.90
7502;DHT22;3792;47.740;7.606;2023-10-09T08:35:28;21.80;99.90
7502;DHT22;3792;47.740;7.606;2023-10-09T08:38:00;21.90;99.90
7502;DHT22;3792;47.740;7.606;2023-10-09T08:40:35;21.90;99.90
7502;DHT22;3792;47.740;7.606;2023-10-09T08:43:09;22.00;99.90
7502;DHT22;3792;47.740;7.606;2023-10-09T08:45:38;22.10;99.90
7502;DHT22;3792;47.740;7.606;2023-10-09T08:48:07;22.20;99.90
7502;DHT22;3792;47.740;7.606;2023-10-09T08:50:38;22.30;99.90
7502;DHT22;3792;47.740;7.606;2023-10-09T08:53:06;22.40;99.90
7502;DHT22;3792;47.740;7.606;2023-10-09T08:55:36;22.40;99.90
7502;DHT22;3792;47.740;7.606;2023-10-09T08:58:04;22.40;99.90
7502;DHT22;3792;47.740;7.606;2023-10-09T09:00:39;22.40;99.90
7502;DHT22;3792;47.740;7.606;2023-10-09T09:03:09;22.50;99.90
7502;DHT22;3792;47.740;7.606;2023-10-09T09:05:36;22.60;99.90
7502;DHT22;3792;47.740;7.606;2023-10-09T09:08:03;22.70;99.90
7502;DHT22;3792;47.740;7.606;2023-10-09T09:10:30;22.80;99.90
7502;DHT22;3792;47.740;7.606;2023-10-09T09:13:02;22.90;99.90
7502;DHT22;3792;47.740;7.606;2023-10-09T09:15:31;22.90;99.90
7502;DHT22;3792;47.740;7.606;2023-10-09T09:18:07;23.10;99.90
7502;DHT22;3792;47.740;7.606;2023-10-09T09:20:43;23.20;99.90
7502;DHT22;3792;47.740;7.606;2023-10-09T09:23:13;23.40;99.90
7502;DHT22;3792;47.740;7.606;2023-10-09T09:25:41;23.50;99.90
7502;DHT22;3792;47.740;7.606;2023-10-09T09:28:12;23.60;99.80
7502;DHT22;3792;47.740;7.606;2023-10-09T09:30:45;23.60;99.50
7502;DHT22;3792;47.740;7.606;2023-10-09T09:33:23;23.70;99.60
7502;DHT22;3792;47.740;7.606;2023-10-09T09:36:06;23.80;99.60
7502;DHT22;3792;47.740;7.606;2023-10-09T09:38:36;24.00;99.10
7502;DHT22;3792;47.740;7.606;2023-10-09T09:41:13;24.10;98.80
7502;DHT22;3792;47.740;7.606;2023-10-09T09:43:52;24.30;98.50
7502;DHT22;3792;47.740;7.606;2023-10-09T09:46:22;24.30;98.20
7502;DHT22;3792;47.740;7.606;2023-10-09T09:48:56;24.40;98.10
7502;DHT22;3792;47.740;7.606;2023-10-09T09:51:29;24.50;98.10
7502;DHT22;3792;47.740;7.606;2023-10-09T09:53:57;24.60;97.40
7502;DHT22;3792;47.740;7.606;2023-10-09T09:56:25;24.70;97.60
7502;DHT22;3792;47.740;7.606;2023-10-09T09:58:53;24.90;97.60
7502;DHT22;3792;47.740;7.606;2023-10-09T10:01:26;25.00;97.10
7502;DHT22;3792;47.740;7.606;2023-10-09T10:04:01;25.10;97.20
7502;DHT22;3792;47.740;7.606;2023-10-09T10:06:33;25.30;97.40
7502;DHT22;3792;47.740;7.606;2023-10-09T10:09:01;25.50;96.70
7502;DHT22;3792;47.740;7.606;2023-10-09T10:11:45;25.70;96.00
7502;DHT22;3792;47.740;7.606;2023-10-09T10:14:13;25.70;95.60
7502;DHT22;3792;47.740;7.606;2023-10-09T10:17:03;25.60;95.30
7502;DHT22;3792;47.740;7.606;2023-10-09T10:20:05;25.40;95.50
7502;DHT22;3792;47.740;7.606;2023-10-09T10:22:49;24.90;95.60
7502;DHT22;3792;47.740;7.606;2023-10-09T10:25:35;24.70;96.60
7502;DHT22;3792;47.740;7.606;2023-10-09T10:28:19;24.60;96.50
7502;DHT22;3792;47.740;7.606;2023-10-09T10:31:04;24.60;96.30
7502;DHT22;3792;47.740;7.606;2023-10-09T10:34:03;24.60;96.40
7502;DHT22;3792;47.740;7.606;2023-10-09T10:36:34;24.60;96.90
7502;DHT22;3792;47.740;7.606;2023-10-09T10:39:02;24.70;96.80
7502;DHT22;3792;47.740;7.606;2023-10-09T10:41:33;24.80;96.50
7502;DHT22;3792;47.740;7.606;2023-10-09T10:44:23;24.90;96.70
7502;DHT22;3792;47.740;7.606;2023-10-09T10:47:05;24.90;96.50
7502;DHT22;3792;47.740;7.606;2023-10-09T10:49:43;24.90;96.80
7502;DHT22;3792;47.740;7.606;2023-10-09T10:52:21;25.00;96.70
7502;DHT22;3792;47.740;7.606;2023-10-09T10:55:08;25.40;96.10
7502;DHT22;3792;47.740;7.606;2023-10-09T10:57:44;25.80;95.60
7502;DHT22;3792;47.740;7.606;2023-10-09T11:00:21;26.20;94.50
7502;DHT22;3792;47.740;7.606;2023-10-09T11:03:06;26.50;94.50
7502;DHT22;3792;47.740;7.606;2023-10-09T11:05:45;26.80;93.20
7502;DHT22;3792;47.740;7.606;2023-10-09T11:08:23;26.90;93.00
7502;DHT22;3792;47.740;7.606;2023-10-09T11:10:53;26.90;92.30
7502;DHT22;3792;47.740;7.606;2023-10-09T11:13:42;26.80;92.20
7502;DHT22;3792;47.740;7.606;2023-10-09T11:16:23;26.70;92.80
7502;DHT22;3792;47.740;7.606;2023-10-09T11:19:08;26.70;92.30
7502;DHT22;3792;47.740;7.606;2023-10-09T11:21:50;26.70;92.40
7502;DHT22;3792;47.740;7.606;2023-10-09T11:24:27;26.80;92.30
7502;DHT22;3792;47.740;7.606;2023-10-09T11:26:56;27.00;91.00
7502;DHT22;3792;47.740;7.606;2023-10-09T11:29:24;27.20;91.70
7502;DHT22;3792;47.740;7.606;2023-10-09T11:31:59;27.40;91.40
7502;DHT22;3792;47.740;7.606;2023-10-09T11:34:27;27.50;90.10
7502;DHT22;3792;47.740;7.606;2023-10-09T11:36:58;27.40;89.20
7502;DHT22;3792;47.740;7.606;2023-10-09T11:39:29;27.40;89.30
7502;DHT22;3792;47.740;7.606;2023-10-09T11:42:04;27.40;89.30
7502;DHT22;3792;47.740;7.606;2023-10-09T11:44:42;27.30;90.00
7502;DHT22;3792;47.740;7.606;2023-10-09T11:47:12;27.20;89.60
7502;DHT22;3792;47.740;7.606;2023-10-09T11:49:52;27.40;90.00
7502;DHT22;3792;47.740;7.606;2023-10-09T11:52:54;27.40;89.00
7502;DHT22;3792;47.740;7.606;2023-10-09T11:55:24;27.60;90.00
7502;DHT22;3792;47.740;7.606;2023-10-09T11:57:51;27.80;89.60
7502;DHT22;3792;47.740;7.606;2023-10-09T12:00:19;27.80;87.50
7502;DHT22;3792;47.740;7.606;2023-10-09T12:02:55;27.80;88.00
7502;DHT22;3792;47.740;7.606;2023-10-09T12:05:33;27.70;87.80
7502;DHT22;3792;47.740;7.606;2023-10-09T12:08:02;27.80;87.90
7502;DHT22;3792;47.740;7.606;2023-10-09T12:10:36;28.00;89.10
7502;DHT22;3792;47.740;7.606;2023-10-09T12:13:07;28.10;85.70
7502;DHT22;3792;47.740;7.606;2023-10-09T12:15:34;28.00;86.80
7502;DHT22;3792;47.740;7.606;2023-10-09T12:18:07;27.90;85.90
7502;DHT22;3792;47.740;7.606;2023-10-09T12:20:45;27.70;87.00
7502;DHT22;3792;47.740;7.606;2023-10-09T12:23:17;27.60;88.10
7502;DHT22;3792;47.740;7.606;2023-10-09T12:25:48;27.50;88.20
7502;DHT22;3792;47.740;7.606;2023-10-09T12:28:24;27.30;88.60
7502;DHT22;3792;47.740;7.606;2023-10-09T12:30:54;27.10;88.70
7502;DHT22;3792;47.740;7.606;2023-10-09T12:33:37;27.00;89.90
7502;DHT22;3792;47.740;7.606;2023-10-09T12:36:13;26.80;90.10
7502;DHT22;3792;47.740;7.606;2023-10-09T12:38:46;26.70;90.30
7502;DHT22;3792;47.740;7.606;2023-10-09T12:41:17;26.60;90.60
7502;DHT22;3792;47.740;7.606;2023-10-09T12:43:57;26.40;90.80
7502;DHT22;3792;47.740;7.606;2023-10-09T12:46:26;26.30;90.80
7502;DHT22;3792;47.740;7.606;2023-10-09T12:48:59;26.20;90.90
7502;DHT22;3792;47.740;7.606;2023-10-09T12:51:36;26.10;91.40
7502;DHT22;3792;47.740;7.606;2023-10-09T12:54:06;26.10;91.30
7502;DHT22;3792;47.740;7.606;2023-10-09T12:56:43;26.00;91.90
7502;DHT22;3792;47.740;7.606;2023-10-09T12:59:16;25.90;91.60
7502;DHT22;3792;47.740;7.606;2023-10-09T13:01:52;25.90;91.40
7502;DHT22;3792;47.740;7.606;2023-10-09T13:04:27;25.80;91.30
7502;DHT22;3792;47.740;7.606;2023-10-09T13:07:01;25.80;92.10
7502;DHT22;3792;47.740;7.606;2023-10-09T13:09:33;25.70;91.90
7502;DHT22;3792;47.740;7.606;2023-10-09T13:12:04;25.70;92.20
7502;DHT22;3792;47.740;7.606;2023-10-09T13:14:38;25.70;91.60
7502;DHT22;3792;47.740;7.606;2023-10-09T13:17:16;25.80;91.80
7502;DHT22;3792;47.740;7.606;2023-10-09T13:20:02;25.80;91.80
7502;DHT22;3792;47.740;7.606;2023-10-09T13:22:31;25.80;92.10
7502;DHT22;3792;47.740;7.606;2023-10-09T13:24:58;25.80;91.80
7502;DHT22;3792;47.740;7.606;2023-10-09T13:27:32;25.80;92.00
7502;DHT22;3792;47.740;7.606;2023-10-09T13:30:00;25.90;91.90
7502;DHT22;3792;47.740;7.606;2023-10-09T13:32:31;25.90;91.70
7502;DHT22;3792;47.740;7.606;2023-10-09T13:35:01;26.10;91.60
7502;DHT22;3792;47.740;7.606;2023-10-09T13:37:32;26.30;92.00
7502;DHT22;3792;47.740;7.606;2023-10-09T13:40:02;26.70;91.60
7502;DHT22;3792;47.740;7.606;2023-10-09T13:42:36;27.10;90.90
7502;DHT22;3792;47.740;7.606;2023-10-09T13:45:05;27.40;90.00
7502;DHT22;3792;47.740;7.606;2023-10-09T13:47:41;27.70;90.00
7502;DHT22;3792;47.740;7.606;2023-10-09T13:50:10;28.10;89.40
7502;DHT22;3792;47.740;7.606;2023-10-09T13:52:39;28.50;88.40
7502;DHT22;3792;47.740;7.606;2023-10-09T13:55:06;28.80;86.60
7502;DHT22;3792;47.740;7.606;2023-10-09T13:57:44;29.10;85.20
7502;DHT22;3792;47.740;7.606;2023-10-09T14:00:13;29.30;84.60
7502;DHT22;3792;47.740;7.606;2023-10-09T14:02:43;29.30;84.00
7502;DHT22;3792;47.740;7.606;2023-10-09T14:05:12;29.50;83.30
7502;DHT22;3792;47.740;7.606;2023-10-09T14:07:39;29.60;83.80
7502;DHT22;3792;47.740;7.606;2023-10-09T14:10:08;29.70;83.40
7502;DHT22;3792;47.740;7.606;2023-10-09T14:12:44;29.70;83.70
7502;DHT22;3792;47.740;7.606;2023-10-09T14:15:11;29.70;83.40
7502;DHT22;3792;47.740;7.606;2023-10-09T14:17:43;29.50;83.50
7502;DHT22;3792;47.740;7.606;2023-10-09T14:20:12;29.60;82.80
7502;DHT22;3792;47.740;7.606;2023-10-09T14:22:59;29.60;82.50
7502;DHT22;3792;47.740;7.606;2023-10-09T14:25:32;29.60;81.40
7502;DHT22;3792;47.740;7.606;2023-10-09T14:28:06;29.60;81.90
7502;DHT22;3792;47.740;7.606;2023-10-09T14:30:35;29.60;83.30
7502;DHT22;3792;47.740;7.606;2023-10-09T14:33:08;29.70;82.90
7502;DHT22;3792;47.740;7.606;2023-10-09T14:35:39;29.80;80.30
7502;DHT22;3792;47.740;7.606;2023-10-09T14:38:06;29.90;80.70
7502;DHT22;3792;47.740;7.606;2023-10-09T14:40:41;30.00;81.20
7502;DHT22;3792;47.740;7.606;2023-10-09T14:43:10;30.10;80.20
7502;DHT22;3792;47.740;7.606;2023-10-09T14:45:45;30.30;80.10
7502;DHT22;3792;47.740;7.606;2023-10-09T14:48:16;30.20;76.60
7502;DHT22;3792;47.740;7.606;2023-10-09T14:50:47;30.10;76.30
7502;DHT22;3792;47.740;7.606;2023-10-09T14:53:15;29.90;76.40
7502;DHT22;3792;47.740;7.606;2023-10-09T14:55:42;29.70;75.80
7502;DHT22;3792;47.740;7.606;2023-10-09T14:58:12;29.50;75.60
7502;DHT22;3792;47.740;7.606;2023-10-09T15:00:40;29.20;77.00
7502;DHT22;3792;47.740;7.606;2023-10-09T15:03:12;28.90;78.10
7502;DHT22;3792;47.740;7.606;2023-10-09T15:05:41;28.60;77.70
7502;DHT22;3792;47.740;7.606;2023-10-09T15:08:09;28.30;78.60
7502;DHT22;3792;47.740;7.606;2023-10-09T15:10:45;28.00;78.90
7502;DHT22;3792;47.740;7.606;2023-10-09T15:13:14;27.80;80.70
7502;DHT22;3792;47.740;7.606;2023-10-09T15:15:43;27.60;80.80
7502;DHT22;3792;47.740;7.606;2023-10-09T15:18:12;27.60;81.20
7502;DHT22;3792;47.740;7.606;2023-10-09T15:20:39;27.50;83.50
7502;DHT22;3792;47.740;7.606;2023-10-09T15:23:07;27.40;85.40
7502;DHT22;3792;47.740;7.606;2023-10-09T15:25:34;27.30;86.80
7502;DHT22;3792;47.740;7.606;2023-10-09T15:28:05;27.10;90.10
7502;DHT22;3792;47.740;7.606;2023-10-09T15:30:35;26.80;90.60
7502;DHT22;3792;47.740;7.606;2023-10-09T15:33:04;26.70;91.20
7502;DHT22;3792;47.740;7.606;2023-10-09T15:35:33;26.40;92.20
7502;DHT22;3792;47.740;7.606;2023-10-09T15:38:00;26.20;92.80
7502;DHT22;3792;47.740;7.606;2023-10-09T15:40:29;25.90;94.00
7502;DHT22;3792;47.740;7.606;2023-10-09T15:42:59;25.60;95.20
7502;DHT22;3792;47.740;7.606;2023-10-09T15:45:27;25.50;95.70
7502;DHT22;3792;47.740;7.606;2023-10-09T15:47:57;25.30;96.10
7502;DHT22;3792;47.740;7.606;2023-10-09T15:50:25;25.10;97.30
7502;DHT22;3792;47.740;7.606;2023-10-09T15:52:53;25.00;97.70
7502;DHT22;3792;47.740;7.606;2023-10-09T15:55:20;24.90;97.50
7502;DHT22;3792;47.740;7.606;2023-10-09T15:57:50;24.80;97.70
7502;DHT22;3792;47.740;7.606;2023-10-09T16:00:20;24.60;97.70
7502;DHT22;3792;47.740;7.606;2023-10-09T16:02:56;24.60;98.50
7502;DHT22;3792;47.740;7.606;2023-10-09T16:05:26;24.40;99.00
7502;DHT22;3792;47.740;7.606;2023-10-09T16:07:54;24.30;99.90
7502;DHT22;3792;47.740;7.606;2023-10-09T16:10:22;24.20;99.90
7502;DHT22;3792;47.740;7.606;2023-10-09T16:12:50;24.00;99.90
7502;DHT22;3792;47.740;7.606;2023-10-09T16:15:18;23.90;99.90
7502;DHT22;3792;47.740;7.606;2023-10-09T16:17:46;23.70;99.90
7502;DHT22;3792;47.740;7.606;2023-10-09T16:20:16;23.50;99.90
7502;DHT22;3792;47.740;7.606;2023-10-09T16:22:47;23.50;99.90
7502;DHT22;3792;47.740;7.606;2023-10-09T16:25:15;23.40;99.90
7502;DHT22;3792;47.740;7.606;2023-10-09T16:27:43;23.30;99.90
7502;DHT22;3792;47.740;7.606;2023-10-09T16:30:17;23.20;99.90
7502;DHT22;3792;47.740;7.606;2023-10-09T16:32:46;23.00;99.90
7502;DHT22;3792;47.740;7.606;2023-10-09T16:35:13;22.90;99.90
7502;DHT22;3792;47.740;7.606;2023-10-09T16:37:42;22.80;99.90
7502;DHT22;3792;47.740;7.606;2023-10-09T16:40:10;22.70;99.90
7502;DHT22;3792;47.740;7.606;2023-10-09T16:42:39;22.60;99.90
7502;DHT22;3792;47.740;7.606;2023-10-09T16:45:08;22.50;99.90
7502;DHT22;3792;47.740;7.606;2023-10-09T16:47:44;22.40;99.90